Alcester, South Dakota
Current Conditions -  °F | °C
As of 6:15 PM on Wednesday 26 Nov 2014 (Local Time) from KLRJ Reporting Station
Overcast Overcast  
Wind Chill: -14°   Ceiling: 1700
Heat Index: -7°   Visibility: 10mi
Dew Point: -10°   Wind: 13mph
Humidity: 80%   Direction: 350°N
Pressure: 30.38"   Gusts: NA
Location:  43.02°N, 96.63°W
Report Text: KLRJ 270015Z AUTO 35011KT 10SM OVC017 M07/M10 A3038 RMK AO2
Loading
Personal Weather Stations






























Interactive Weather Map New forecast layout! Learn more

10-Day Weather Forecast

Advertisements
Track Severe Weather on mobile